createdAt,value
2017-12-26T00:00:03.454Z,73.00
2017-12-26T00:00:37.877Z,72.80
2017-12-26T00:01:11.567Z,72.80
2017-12-26T00:01:45.225Z,72.90
2017-12-26T00:02:18.885Z,72.80
2017-12-26T00:02:52.545Z,72.90
2017-12-26T00:03:26.222Z,73.00
2017-12-26T00:03:59.884Z,73.10
2017-12-26T00:04:34.318Z,73.40
2017-12-26T00:05:07.980Z,73.40
2017-12-26T00:05:42.403Z,73.00
2017-12-26T00:06:16.853Z,72.90
2017-12-26T00:06:50.507Z,72.90
2017-12-26T00:07:24.176Z,72.90
2017-12-26T00:07:58.607Z,72.60
2017-12-26T00:08:32.259Z,72.50
2017-12-26T00:09:05.582Z,72.60
2017-12-26T00:09:38.620Z,72.40
2017-12-26T00:10:13.812Z,72.20
2017-12-26T00:10:47.481Z,72.30
2017-12-26T00:11:21.158Z,72.40
2017-12-26T00:11:54.817Z,72.50
2017-12-26T00:12:28.468Z,72.70
2017-12-26T00:13:02.128Z,72.70
2017-12-26T00:13:35.795Z,72.90
2017-12-26T00:14:10.228Z,72.80
2017-12-26T00:14:43.877Z,72.80
2017-12-26T00:15:17.538Z,72.70
2017-12-26T00:15:51.209Z,72.40
2017-12-26T00:16:25.151Z,72.80
2017-12-26T00:16:58.832Z,72.60
2017-12-26T00:17:32.484Z,73.10
2017-12-26T00:18:06.141Z,72.80
2017-12-26T00:18:40.567Z,72.50
2017-12-26T00:19:14.222Z,72.60
2017-12-26T00:19:48.654Z,73.00
2017-12-26T00:20:22.315Z,73.00
2017-12-26T00:20:55.972Z,72.80
2017-12-26T00:21:29.662Z,72.90
2017-12-26T00:22:03.360Z,72.60
2017-12-26T00:22:37.023Z,72.60
2017-12-26T00:23:10.688Z,72.80
2017-12-26T00:23:44.339Z,72.60
2017-12-26T00:24:17.994Z,72.50
2017-12-26T00:24:51.654Z,72.50
2017-12-26T00:25:25.311Z,72.50
2017-12-26T00:25:58.962Z,72.40
2017-12-26T00:26:32.654Z,72.50
2017-12-26T00:27:06.311Z,72.40
2017-12-26T00:27:39.962Z,72.30
2017-12-26T00:28:13.623Z,72.20
2017-12-26T00:28:47.280Z,72.20
2017-12-26T00:29:21.913Z,72.60
2017-12-26T00:29:55.572Z,72.60
2017-12-26T00:30:29.995Z,72.70
2017-12-26T00:31:03.653Z,72.70
2017-12-26T00:31:38.108Z,72.60
2017-12-26T00:32:11.764Z,72.40
2017-12-26T00:32:46.187Z,72.60
2017-12-26T00:33:19.850Z,72.60
2017-12-26T00:33:54.262Z,72.80
2017-12-26T00:34:28.683Z,72.50
2017-12-26T00:35:02.345Z,72.50
2017-12-26T00:35:35.992Z,72.30
2017-12-26T00:36:09.651Z,72.80
2017-12-26T00:36:43.419Z,72.80
2017-12-26T00:37:17.857Z,72.70
2017-12-26T00:37:51.527Z,72.60
2017-12-26T00:38:25.216Z,72.40
2017-12-26T00:39:00.366Z,72.40
2017-12-26T00:39:34.120Z,72.30
2017-12-26T00:40:07.769Z,72.40
2017-12-26T00:40:41.430Z,72.40
2017-12-26T00:41:15.088Z,72.40
2017-12-26T00:41:49.079Z,72.40
2017-12-26T00:42:22.722Z,72.60
2017-12-26T00:42:56.382Z,73.40
2017-12-26T00:43:30.053Z,72.80
2017-12-26T00:44:04.471Z,72.80
2017-12-26T00:44:38.898Z,72.30
2017-12-26T00:45:12.555Z,72.30
2017-12-26T00:45:46.224Z,72.60
2017-12-26T00:46:19.878Z,72.50
2017-12-26T00:46:53.942Z,72.40
2017-12-26T00:47:28.367Z,72.50
2017-12-26T00:48:02.033Z,72.50
2017-12-26T00:48:36.483Z,72.80
2017-12-26T00:49:10.138Z,72.70
2017-12-26T00:49:44.558Z,72.40
2017-12-26T00:50:18.202Z,72.40
2017-12-26T00:50:51.894Z,72.60
2017-12-26T00:51:25.552Z,72.40
2017-12-26T00:51:59.592Z,72.50
2017-12-26T00:52:33.451Z,72.40
2017-12-26T00:53:07.102Z,72.70
2017-12-26T00:53:40.751Z,72.90
2017-12-26T00:54:14.406Z,72.90
2017-12-26T00:54:48.062Z,72.90
2017-12-26T00:55:22.482Z,72.50
2017-12-26T00:55:56.131Z,72.50
2017-12-26T00:56:29.800Z,72.30
2017-12-26T00:57:03.832Z,72.50
2017-12-26T00:57:38.254Z,71.70
2017-12-26T00:58:12.675Z,72.50
2017-12-26T00:58:46.341Z,72.50
2017-12-26T00:59:20.771Z,72.30
2017-12-26T00:59:54.466Z,72.20
2017-12-26T01:00:28.120Z,72.10
2017-12-26T01:01:02.550Z,72.70
2017-12-26T01:01:36.202Z,72.60
2017-12-26T01:02:09.894Z,72.40
2017-12-26T01:02:43.550Z,72.40
2017-12-26T01:03:17.213Z,72.50
2017-12-26T01:03:50.875Z,72.30
2017-12-26T01:04:24.525Z,72.30
2017-12-26T01:04:58.187Z,72.70
2017-12-26T01:05:31.846Z,72.70
2017-12-26T01:06:06.606Z,72.10
2017-12-26T01:06:40.258Z,72.10
2017-12-26T01:07:14.715Z,72.30
2017-12-26T01:07:48.378Z,72.30
2017-12-26T01:08:22.052Z,72.00
2017-12-26T01:08:56.490Z,71.90
2017-12-26T01:09:30.142Z,71.90
2017-12-26T01:10:04.558Z,71.80
2017-12-26T01:10:38.226Z,71.80
2017-12-26T01:11:12.673Z,72.00
2017-12-26T01:11:46.333Z,72.00
2017-12-26T01:12:21.138Z,71.90
2017-12-26T01:12:55.558Z,72.30
2017-12-26T01:13:29.988Z,72.00
2017-12-26T01:14:03.653Z,71.90
2017-12-26T01:14:38.083Z,72.10
2017-12-26T01:15:11.786Z,72.10
2017-12-26T01:15:45.438Z,72.00
2017-12-26T01:16:19.855Z,72.00
2017-12-26T01:16:54.290Z,71.80
2017-12-26T01:17:28.138Z,71.90
2017-12-26T01:18:02.559Z,72.20
2017-12-26T01:18:36.982Z,72.20
2017-12-26T01:19:10.638Z,72.20
2017-12-26T01:19:45.062Z,73.20
2017-12-26T01:20:19.490Z,72.00
2017-12-26T01:20:53.150Z,72.10
2017-12-26T01:21:27.573Z,72.20
2017-12-26T01:22:01.226Z,72.00
2017-12-26T01:22:35.973Z,72.20
2017-12-26T01:23:10.394Z,72.10
2017-12-26T01:23:44.063Z,72.10
2017-12-26T01:24:18.159Z,71.90
2017-12-26T01:24:52.574Z,71.80
2017-12-26T01:25:26.998Z,71.70
2017-12-26T01:26:00.651Z,71.70
2017-12-26T01:26:35.072Z,71.40
2017-12-26T01:27:09.501Z,71.10
2017-12-26T01:27:43.178Z,71.70
2017-12-26T01:28:16.829Z,71.30
2017-12-26T01:28:50.482Z,71.30
2017-12-26T01:29:24.142Z,71.70
2017-12-26T01:29:58.575Z,71.60
2017-12-26T01:30:32.225Z,71.50
2017-12-26T01:31:06.646Z,71.20
2017-12-26T01:31:40.297Z,71.10
2017-12-26T01:32:13.949Z,71.00
2017-12-26T01:32:47.651Z,71.10
2017-12-26T01:33:21.302Z,71.20
2017-12-26T01:33:55.718Z,71.20
2017-12-26T01:34:29.388Z,71.30
2017-12-26T01:35:03.808Z,71.40
2017-12-26T01:35:37.457Z,71.40
2017-12-26T01:36:11.145Z,71.60
2017-12-26T01:36:44.799Z,71.10
2017-12-26T01:37:18.446Z,71.40
2017-12-26T01:37:52.874Z,71.70
2017-12-26T01:38:26.536Z,71.70
2017-12-26T01:39:00.198Z,71.70
2017-12-26T01:39:33.868Z,71.40
2017-12-26T01:40:07.526Z,71.40
2017-12-26T01:40:41.957Z,71.30
2017-12-26T01:41:15.303Z,71.30
2017-12-26T01:41:49.729Z,71.00
2017-12-26T01:42:23.391Z,71.00
2017-12-26T01:42:57.067Z,71.10
2017-12-26T01:43:30.722Z,71.00
2017-12-26T01:44:04.375Z,71.20
2017-12-26T01:44:38.797Z,71.20
2017-12-26T01:45:12.464Z,71.20
2017-12-26T01:45:46.567Z,71.20
2017-12-26T01:46:24.715Z,70.80
2017-12-26T01:46:58.384Z,70.90
2017-12-26T01:47:32.047Z,70.90
2017-12-26T01:48:06.523Z,71.30
2017-12-26T01:48:40.176Z,71.40
2017-12-26T01:49:13.827Z,71.60
2017-12-26T01:49:48.249Z,70.80
2017-12-26T01:50:21.926Z,70.80
2017-12-26T01:50:56.365Z,70.80
2017-12-26T01:51:30.018Z,70.80
2017-12-26T01:52:04.114Z,70.90
2017-12-26T01:52:38.530Z,71.20
2017-12-26T01:53:12.974Z,71.10
2017-12-26T01:53:46.628Z,71.00
2017-12-26T01:54:21.045Z,71.90
2017-12-26T01:54:54.700Z,71.90
2017-12-26T01:55:28.179Z,71.50
2017-12-26T01:56:03.361Z,71.30
2017-12-26T01:56:37.022Z,71.20
2017-12-26T01:57:11.457Z,70.90
2017-12-26T01:57:45.124Z,70.90
2017-12-26T01:58:19.482Z,70.70
2017-12-26T01:58:53.142Z,70.70
2017-12-26T01:59:26.798Z,71.30
2017-12-26T02:00:01.233Z,70.90
2017-12-26T02:00:34.894Z,70.80
2017-12-26T02:01:09.314Z,71.00
2017-12-26T02:01:42.978Z,70.90
2017-12-26T02:02:18.020Z,70.70
2017-12-26T02:02:52.431Z,70.80
2017-12-26T02:03:26.114Z,70.80
2017-12-26T02:04:00.519Z,70.60
2017-12-26T02:04:34.949Z,70.40
2017-12-26T02:05:08.602Z,70.50
2017-12-26T02:05:43.018Z,70.30
2017-12-26T02:06:17.442Z,70.00
2017-12-26T02:06:51.099Z,70.00
2017-12-26T02:07:24.755Z,70.00
2017-12-26T02:07:58.412Z,70.00
2017-12-26T02:08:32.192Z,69.90
2017-12-26T02:09:05.841Z,69.90
2017-12-26T02:09:39.490Z,70.20
2017-12-26T02:10:13.142Z,70.30
2017-12-26T02:10:47.558Z,70.40
2017-12-26T02:11:21.985Z,70.50
2017-12-26T02:11:55.640Z,70.50
2017-12-26T02:12:29.293Z,70.50
2017-12-26T02:13:02.986Z,70.50
2017-12-26T02:13:36.667Z,70.50
2017-12-26T02:14:10.330Z,70.40
2017-12-26T02:14:43.987Z,70.40
2017-12-26T02:15:17.638Z,70.60
2017-12-26T02:15:51.014Z,70.60
2017-12-26T02:16:24.821Z,70.80
2017-12-26T02:16:58.483Z,71.30
2017-12-26T02:17:32.139Z,70.70
2017-12-26T02:18:06.573Z,70.40
2017-12-26T02:18:40.264Z,70.30
2017-12-26T02:19:13.918Z,70.40
2017-12-26T02:19:47.578Z,70.80
2017-12-26T02:20:21.241Z,70.90
2017-12-26T02:20:54.893Z,70.80
2017-12-26T02:21:29.013Z,71.10
2017-12-26T02:22:02.691Z,71.10
2017-12-26T02:22:37.123Z,70.40
2017-12-26T02:23:10.777Z,70.30
2017-12-26T02:23:45.238Z,70.30
2017-12-26T02:24:18.906Z,70.20
2017-12-26T02:24:52.567Z,69.70
2017-12-26T02:25:26.988Z,70.20
2017-12-26T02:26:00.639Z,70.20
2017-12-26T02:26:34.295Z,69.80
2017-12-26T02:27:07.950Z,69.90
2017-12-26T02:27:42.369Z,70.00
2017-12-26T02:28:16.025Z,70.00
2017-12-26T02:28:50.035Z,70.10
2017-12-26T02:29:24.454Z,70.20
2017-12-26T02:29:58.109Z,70.20
2017-12-26T02:30:31.758Z,70.60
2017-12-26T02:31:05.408Z,70.50
2017-12-26T02:31:39.835Z,69.70
2017-12-26T02:32:13.510Z,69.60
2017-12-26T02:32:47.934Z,69.50
2017-12-26T02:33:21.594Z,69.40
2017-12-26T02:33:56.046Z,69.40
2017-12-26T02:34:29.702Z,69.40
2017-12-26T02:35:04.127Z,69.10
2017-12-26T02:35:37.796Z,69.10
2017-12-26T02:36:12.242Z,69.40
2017-12-26T02:36:45.895Z,69.40
2017-12-26T02:37:20.326Z,69.60
2017-12-26T02:37:53.985Z,69.60
2017-12-26T02:38:28.415Z,69.40
2017-12-26T02:39:02.379Z,69.30
2017-12-26T02:39:36.806Z,69.80
2017-12-26T02:40:10.554Z,69.20
2017-12-26T02:40:44.210Z,69.20
2017-12-26T02:41:17.863Z,69.20
2017-12-26T02:41:52.340Z,69.40
2017-12-26T02:42:26.904Z,69.40
2017-12-26T02:43:00.562Z,69.40
2017-12-26T02:43:34.216Z,69.20
2017-12-26T02:44:08.264Z,69.40
2017-12-26T02:44:42.691Z,69.40
2017-12-26T02:45:16.358Z,69.40
2017-12-26T02:45:50.782Z,69.60
2017-12-26T02:46:24.435Z,69.60
2017-12-26T02:46:58.092Z,69.30
2017-12-26T02:47:31.757Z,69.30
2017-12-26T02:48:05.420Z,69.50
2017-12-26T02:48:39.844Z,69.60
2017-12-26T02:49:13.516Z,69.50
2017-12-26T02:49:47.934Z,69.40
2017-12-26T02:50:22.355Z,69.40
2017-12-26T02:50:56.017Z,69.40
2017-12-26T02:51:30.475Z,69.40
2017-12-26T02:52:04.134Z,69.40
2017-12-26T02:52:37.789Z,69.60
2017-12-26T02:53:11.449Z,69.70
2017-12-26T02:53:45.112Z,69.80
2017-12-26T02:54:19.070Z,69.70
2017-12-26T02:54:52.726Z,69.70
2017-12-26T02:55:26.382Z,69.80
2017-12-26T02:56:00.041Z,69.70
2017-12-26T02:56:34.470Z,69.70
2017-12-26T02:57:08.133Z,69.70
2017-12-26T02:57:41.787Z,69.60
2017-12-26T02:58:15.446Z,69.30
2017-12-26T02:58:49.104Z,69.50
2017-12-26T02:59:23.064Z,69.40
2017-12-26T02:59:56.718Z,69.40
2017-12-26T03:00:30.380Z,69.50
2017-12-26T03:01:04.810Z,69.60
2017-12-26T03:01:38.933Z,69.50
2017-12-26T03:02:12.604Z,69.60
2017-12-26T03:02:46.281Z,69.70
2017-12-26T03:03:20.719Z,69.70
2017-12-26T03:03:54.396Z,69.70
2017-12-26T03:04:28.421Z,70.00
2017-12-26T03:05:02.088Z,70.20
2017-12-26T03:05:35.755Z,70.20
2017-12-26T03:06:09.429Z,70.20
2017-12-26T03:06:43.886Z,70.30
2017-12-26T03:07:17.543Z,70.30
2017-12-26T03:07:51.978Z,70.30
2017-12-26T03:08:25.636Z,70.40
2017-12-26T03:09:00.066Z,70.60
2017-12-26T03:09:33.764Z,70.60
2017-12-26T03:10:07.412Z,70.50
2017-12-26T03:10:41.833Z,70.80
2017-12-26T03:11:16.254Z,70.90
2017-12-26T03:11:49.909Z,70.90
2017-12-26T03:12:23.570Z,70.90
2017-12-26T03:12:57.245Z,71.00
2017-12-26T03:13:30.928Z,71.20
2017-12-26T03:14:04.595Z,71.30
2017-12-26T03:14:38.282Z,71.30
2017-12-26T03:15:11.945Z,71.40
2017-12-26T03:15:45.609Z,71.30
2017-12-26T03:16:19.262Z,71.50
2017-12-26T03:16:52.914Z,71.50
2017-12-26T03:17:26.563Z,71.60
2017-12-26T03:18:00.219Z,71.90
2017-12-26T03:18:33.882Z,72.00
2017-12-26T03:19:07.534Z,72.30
2017-12-26T03:19:41.313Z,72.20
2017-12-26T03:20:14.965Z,72.00
2017-12-26T03:20:49.389Z,71.90
2017-12-26T03:21:23.043Z,71.90
2017-12-26T03:21:56.754Z,72.00
2017-12-26T03:22:31.179Z,72.00
2017-12-26T03:23:04.834Z,71.90
2017-12-26T03:23:38.490Z,71.90
2017-12-26T03:24:12.146Z,71.90
2017-12-26T03:24:45.822Z,71.80
2017-12-26T03:25:20.254Z,71.90
2017-12-26T03:25:53.916Z,71.80
2017-12-26T03:26:28.330Z,72.00
2017-12-26T03:27:01.987Z,71.90
2017-12-26T03:27:35.645Z,72.00
2017-12-26T03:28:09.308Z,72.30
2017-12-26T03:28:42.968Z,72.10
2017-12-26T03:29:17.390Z,72.00
2017-12-26T03:29:51.078Z,72.00
2017-12-26T03:30:25.493Z,71.90
2017-12-26T03:30:59.156Z,71.80
2017-12-26T03:31:33.582Z,72.30
2017-12-26T03:32:07.997Z,71.80
2017-12-26T03:32:41.645Z,71.80
2017-12-26T03:33:15.306Z,72.00
2017-12-26T03:33:48.960Z,72.30
2017-12-26T03:34:22.619Z,72.30
2017-12-26T03:34:56.561Z,72.60
2017-12-26T03:35:30.219Z,72.30
2017-12-26T03:36:04.661Z,71.80
2017-12-26T03:36:38.510Z,71.70
2017-12-26T03:37:12.167Z,71.70
2017-12-26T03:37:45.813Z,71.90
2017-12-26T03:38:19.481Z,72.20
2017-12-26T03:38:53.902Z,72.10
2017-12-26T03:39:28.345Z,72.10
2017-12-26T03:40:02.387Z,72.00
2017-12-26T03:40:36.050Z,72.00
2017-12-26T03:41:09.718Z,72.70
2017-12-26T03:41:43.371Z,72.00
2017-12-26T03:42:17.807Z,72.10
2017-12-26T03:42:51.449Z,72.00
2017-12-26T03:43:25.102Z,72.10
2017-12-26T03:43:58.782Z,72.00
2017-12-26T03:44:32.444Z,72.00
2017-12-26T03:45:06.134Z,71.90
2017-12-26T03:45:39.804Z,72.00
2017-12-26T03:46:14.226Z,72.20
2017-12-26T03:46:48.642Z,72.10
2017-12-26T03:47:21.960Z,72.10
2017-12-26T03:47:55.611Z,72.00
2017-12-26T03:48:29.256Z,72.10
2017-12-26T03:49:02.905Z,72.00
2017-12-26T03:49:36.230Z,72.10
2017-12-26T03:50:10.243Z,72.10
2017-12-26T03:50:43.894Z,72.10
2017-12-26T03:51:17.541Z,72.20
2017-12-26T03:51:51.962Z,72.40
2017-12-26T03:52:25.630Z,72.40
2017-12-26T03:53:00.061Z,72.30
2017-12-26T03:53:33.713Z,72.30
2017-12-26T03:54:07.379Z,72.50
2017-12-26T03:54:41.031Z,72.60
2017-12-26T03:55:14.960Z,72.40
2017-12-26T03:55:48.619Z,72.40
2017-12-26T03:56:22.274Z,72.40
2017-12-26T03:56:56.707Z,72.70
2017-12-26T03:57:30.366Z,72.80
2017-12-26T03:58:04.821Z,73.00
2017-12-26T03:58:38.494Z,73.00
2017-12-26T03:59:12.160Z,72.60
2017-12-26T03:59:46.601Z,72.70
2017-12-26T04:00:20.497Z,72.70
2017-12-26T04:00:54.174Z,72.70
2017-12-26T04:01:27.830Z,72.70
2017-12-26T04:02:01.523Z,73.10
2017-12-26T04:02:35.940Z,72.80
2017-12-26T04:03:10.358Z,72.60
2017-12-26T04:03:44.004Z,72.60
2017-12-26T04:04:17.649Z,72.50
2017-12-26T04:04:51.298Z,72.50
2017-12-26T04:05:25.298Z,72.30
2017-12-26T04:05:59.734Z,72.30
2017-12-26T04:06:33.394Z,72.20
2017-12-26T04:07:07.053Z,72.10
2017-12-26T04:07:40.703Z,72.20
2017-12-26T04:08:14.360Z,72.20
2017-12-26T04:08:48.017Z,72.20
2017-12-26T04:09:21.677Z,72.30
2017-12-26T04:09:55.325Z,72.70
2017-12-26T04:10:29.341Z,72.60
2017-12-26T04:11:03.196Z,72.40
2017-12-26T04:11:36.842Z,73.00
2017-12-26T04:12:10.508Z,72.30
2017-12-26T04:12:44.914Z,73.00
2017-12-26T04:13:19.335Z,72.70
2017-12-26T04:13:52.986Z,72.70
2017-12-26T04:14:26.655Z,73.00
2017-12-26T04:15:00.313Z,72.90
2017-12-26T04:15:34.486Z,72.90
2017-12-26T04:16:08.132Z,72.80
2017-12-26T04:16:41.783Z,72.90
2017-12-26T04:17:15.498Z,73.10
2017-12-26T04:17:49.286Z,72.90
2017-12-26T04:18:22.944Z,72.90
2017-12-26T04:18:57.361Z,72.70
2017-12-26T04:19:31.024Z,72.70
2017-12-26T04:20:05.438Z,73.30
2017-12-26T04:20:39.427Z,73.30
2017-12-26T04:21:13.073Z,72.70
2017-12-26T04:21:46.731Z,72.80
2017-12-26T04:22:20.397Z,72.60
2017-12-26T04:22:54.050Z,72.60
2017-12-26T04:23:27.710Z,72.50
2017-12-26T04:24:01.367Z,72.60
2017-12-26T04:24:35.010Z,72.40
2017-12-26T04:25:09.151Z,72.00
2017-12-26T04:25:42.831Z,71.90
2017-12-26T04:26:16.483Z,72.70
2017-12-26T04:26:50.130Z,72.10
2017-12-26T04:27:24.543Z,72.00
2017-12-26T04:27:58.957Z,72.30
2017-12-26T04:28:33.375Z,72.60
2017-12-26T04:29:07.047Z,72.60
2017-12-26T04:29:41.458Z,72.60
2017-12-26T04:30:15.869Z,72.90
2017-12-26T04:30:49.769Z,72.90
2017-12-26T04:31:23.430Z,72.90
2017-12-26T04:31:57.082Z,72.60
2017-12-26T04:32:30.734Z,72.30
2017-12-26T04:33:04.416Z,72.50
2017-12-26T04:33:38.833Z,72.60
2017-12-26T04:34:12.489Z,72.60
2017-12-26T04:34:46.174Z,72.90
2017-12-26T04:35:19.832Z,72.60
2017-12-26T04:35:53.513Z,72.80
2017-12-26T04:36:27.158Z,72.60
2017-12-26T04:37:01.583Z,72.60
2017-12-26T04:37:35.234Z,72.60
2017-12-26T04:38:08.870Z,72.40
2017-12-26T04:38:42.520Z,72.40
2017-12-26T04:39:16.171Z,72.60
2017-12-26T04:39:49.820Z,72.50
2017-12-26T04:40:23.479Z,72.40
2017-12-26T04:40:57.485Z,72.20
2017-12-26T04:41:31.140Z,72.10
2017-12-26T04:42:04.139Z,72.20
2017-12-26T04:42:37.801Z,71.90
2017-12-26T04:43:11.460Z,71.70
2017-12-26T04:43:45.113Z,71.50
2017-12-26T04:44:18.767Z,71.40
2017-12-26T04:44:52.422Z,71.50
2017-12-26T04:45:26.086Z,71.60
2017-12-26T04:46:00.940Z,71.50
2017-12-26T04:46:34.598Z,71.50
2017-12-26T04:47:09.014Z,71.70
2017-12-26T04:47:43.430Z,71.70
2017-12-26T04:48:17.093Z,71.70
2017-12-26T04:48:51.517Z,71.70
2017-12-26T04:49:25.941Z,71.50
2017-12-26T04:49:59.595Z,71.50
2017-12-26T04:50:33.242Z,71.60
2017-12-26T04:51:06.936Z,71.80
2017-12-26T04:51:40.587Z,71.60
2017-12-26T04:52:14.272Z,71.60
2017-12-26T04:52:47.941Z,72.00
2017-12-26T04:53:22.379Z,71.90
2017-12-26T04:53:56.030Z,71.90
2017-12-26T04:54:29.682Z,71.80
2017-12-26T04:55:03.359Z,71.50
2017-12-26T04:55:37.030Z,71.80
2017-12-26T04:56:11.006Z,72.00
2017-12-26T04:56:45.445Z,72.00
2017-12-26T04:57:19.129Z,71.90
2017-12-26T04:57:52.784Z,71.90
2017-12-26T04:58:27.234Z,72.30
2017-12-26T04:59:00.891Z,72.00
2017-12-26T04:59:35.327Z,71.80
2017-12-26T05:00:08.999Z,71.80
2017-12-26T05:00:42.830Z,71.60
2017-12-26T05:01:16.518Z,71.70
2017-12-26T05:01:50.183Z,72.00
2017-12-26T05:02:23.880Z,71.70
2017-12-26T05:02:57.555Z,71.80
2017-12-26T05:03:31.211Z,71.70
2017-12-26T05:04:04.886Z,71.60
2017-12-26T05:04:38.545Z,71.30
2017-12-26T05:05:12.213Z,71.40
2017-12-26T05:05:45.892Z,71.60
2017-12-26T05:06:20.709Z,71.60
2017-12-26T05:06:54.393Z,71.60
2017-12-26T05:07:28.255Z,71.30
2017-12-26T05:08:01.930Z,72.10
2017-12-26T05:08:35.607Z,71.20
2017-12-26T05:09:09.294Z,70.90
2017-12-26T05:09:42.949Z,71.40
2017-12-26T05:10:17.393Z,71.20
2017-12-26T05:10:51.066Z,71.20
2017-12-26T05:11:25.239Z,71.40
2017-12-26T05:11:58.918Z,71.50
2017-12-26T05:12:32.584Z,71.40
2017-12-26T05:13:06.252Z,71.70
2017-12-26T05:13:39.934Z,72.00
2017-12-26T05:14:13.601Z,72.10
2017-12-26T05:14:47.281Z,71.60
2017-12-26T05:15:21.718Z,71.90
2017-12-26T05:15:55.396Z,71.90
2017-12-26T05:16:29.483Z,71.60
2017-12-26T05:17:03.171Z,71.70
2017-12-26T05:17:37.622Z,71.80
2017-12-26T05:18:11.282Z,71.90
2017-12-26T05:18:44.950Z,71.90
2017-12-26T05:19:19.413Z,71.70
2017-12-26T05:19:53.081Z,71.70
2017-12-26T05:20:26.752Z,71.50
2017-12-26T05:21:00.432Z,71.70
2017-12-26T05:21:34.894Z,71.10
2017-12-26T05:22:08.763Z,71.20
2017-12-26T05:22:42.442Z,71.60
2017-12-26T05:23:16.115Z,71.50
2017-12-26T05:23:50.546Z,70.80
2017-12-26T05:24:24.224Z,70.80
2017-12-26T05:24:57.892Z,70.80
2017-12-26T05:25:32.322Z,70.60
2017-12-26T05:26:05.988Z,70.70
2017-12-26T05:26:40.806Z,70.50
2017-12-26T05:27:15.260Z,70.60
2017-12-26T05:27:48.933Z,70.70
2017-12-26T05:28:22.611Z,70.60
2017-12-26T05:28:56.418Z,70.60
2017-12-26T05:29:30.102Z,70.70
2017-12-26T05:30:03.837Z,70.70
2017-12-26T05:30:37.509Z,70.50
2017-12-26T05:31:11.179Z,70.40
2017-12-26T05:31:45.178Z,70.60
2017-12-26T05:32:18.838Z,70.60
2017-12-26T05:32:53.266Z,70.60
2017-12-26T05:33:26.945Z,70.50
2017-12-26T05:34:00.608Z,70.70
2017-12-26T05:34:34.278Z,70.60
2017-12-26T05:35:07.955Z,70.70
2017-12-26T05:35:41.630Z,70.70
2017-12-26T05:36:15.302Z,71.00
2017-12-26T05:36:48.981Z,71.20
2017-12-26T05:37:22.656Z,71.00
2017-12-26T05:37:57.102Z,71.10
2017-12-26T05:38:30.774Z,70.50
2017-12-26T05:39:03.983Z,70.40
2017-12-26T05:39:37.658Z,70.30
2017-12-26T05:40:11.319Z,70.80
2017-12-26T05:40:44.659Z,70.80
2017-12-26T05:41:18.329Z,70.80
2017-12-26T05:41:52.386Z,70.80
2017-12-26T05:42:26.827Z,70.80
2017-12-26T05:43:00.497Z,70.70
2017-12-26T05:43:34.173Z,71.10
2017-12-26T05:44:08.605Z,71.10
2017-12-26T05:44:42.270Z,71.00
2017-12-26T05:45:16.703Z,71.10
2017-12-26T05:45:50.374Z,71.10
2017-12-26T05:46:24.055Z,71.10
2017-12-26T05:46:58.508Z,72.00
2017-12-26T05:47:32.182Z,72.00
2017-12-26T05:48:05.850Z,71.50
2017-12-26T05:48:39.522Z,71.30
2017-12-26T05:49:14.006Z,71.60
2017-12-26T05:49:47.682Z,71.60
2017-12-26T05:50:21.347Z,71.90
2017-12-26T05:50:55.011Z,71.80
2017-12-26T05:51:28.683Z,72.00
2017-12-26T05:52:03.509Z,71.80
2017-12-26T05:52:37.955Z,72.10
2017-12-26T05:53:11.622Z,72.20
2017-12-26T05:53:45.301Z,72.00
2017-12-26T05:54:18.968Z,72.00
2017-12-26T05:54:52.645Z,71.80
2017-12-26T05:55:26.312Z,71.80
2017-12-26T05:56:00.002Z,71.80
2017-12-26T05:56:33.691Z,71.80
2017-12-26T05:57:07.399Z,71.70
2017-12-26T05:57:41.058Z,71.60
2017-12-26T05:58:14.722Z,71.60
2017-12-26T05:58:48.383Z,71.70
2017-12-26T05:59:22.061Z,71.90
2017-12-26T05:59:55.742Z,71.80
2017-12-26T06:00:29.411Z,71.70
2017-12-26T06:01:03.086Z,71.80
2017-12-26T06:01:36.750Z,72.10
2017-12-26T06:02:11.557Z,72.20
2017-12-26T06:02:46.005Z,72.20
2017-12-26T06:03:19.675Z,72.10
2017-12-26T06:03:53.351Z,72.10
2017-12-26T06:04:27.762Z,72.40
2017-12-26T06:05:02.202Z,72.30
2017-12-26T06:05:35.857Z,72.30
2017-12-26T06:06:10.297Z,72.60
2017-12-26T06:06:43.954Z,72.60
2017-12-26T06:07:18.658Z,73.30
2017-12-26T06:07:52.317Z,73.30
2017-12-26T06:08:25.975Z,73.00
2017-12-26T06:08:59.628Z,72.60
2017-12-26T06:09:34.053Z,72.40
2017-12-26T06:10:08.498Z,72.30
2017-12-26T06:10:42.172Z,72.30
2017-12-26T06:11:15.853Z,73.00
2017-12-26T06:11:49.177Z,72.90
2017-12-26T06:12:22.881Z,73.00
2017-12-26T06:12:56.202Z,72.80
2017-12-26T06:13:29.872Z,73.00
2017-12-26T06:14:04.300Z,73.20
2017-12-26T06:14:37.967Z,73.10
2017-12-26T06:15:12.393Z,73.20
2017-12-26T06:15:46.058Z,73.20
2017-12-26T06:16:20.501Z,72.70
2017-12-26T06:16:54.182Z,72.80
2017-12-26T06:17:28.144Z,73.00
2017-12-26T06:18:02.571Z,73.50
2017-12-26T06:18:37.000Z,73.20
2017-12-26T06:19:10.652Z,73.30
2017-12-26T06:19:44.306Z,72.80
2017-12-26T06:20:17.981Z,72.70
2017-12-26T06:20:51.633Z,72.60
2017-12-26T06:21:26.063Z,72.70
2017-12-26T06:21:59.714Z,72.80
2017-12-26T06:22:33.706Z,72.80
2017-12-26T06:23:07.368Z,72.70
2017-12-26T06:23:41.025Z,72.60
2017-12-26T06:24:14.689Z,72.60
2017-12-26T06:24:49.135Z,72.80
2017-12-26T06:25:22.797Z,72.80
2017-12-26T06:25:56.269Z,73.30
2017-12-26T06:26:30.698Z,72.60
2017-12-26T06:27:04.018Z,72.60
2017-12-26T06:27:37.705Z,72.60
2017-12-26T06:28:11.374Z,72.60
2017-12-26T06:28:45.029Z,72.60
2017-12-26T06:29:19.466Z,73.10
2017-12-26T06:29:53.118Z,73.10
2017-12-26T06:30:27.552Z,72.90
2017-12-26T06:31:01.215Z,72.80
2017-12-26T06:31:35.648Z,73.20
2017-12-26T06:32:09.310Z,73.20
2017-12-26T06:32:43.758Z,73.20
2017-12-26T06:33:17.406Z,73.20
2017-12-26T06:33:51.833Z,73.70
2017-12-26T06:34:25.494Z,73.60
2017-12-26T06:34:59.157Z,73.30
2017-12-26T06:35:32.814Z,73.50
2017-12-26T06:36:06.491Z,73.10
2017-12-26T06:36:40.152Z,72.90
2017-12-26T06:37:13.802Z,73.00
2017-12-26T06:37:47.502Z,73.10
2017-12-26T06:38:21.162Z,73.10
2017-12-26T06:38:54.826Z,73.20
2017-12-26T06:39:29.267Z,73.10
2017-12-26T06:40:02.936Z,73.10
2017-12-26T06:40:37.544Z,73.40
2017-12-26T06:41:11.196Z,73.40
2017-12-26T06:41:44.862Z,73.50
2017-12-26T06:42:18.540Z,73.70
2017-12-26T06:42:52.590Z,73.70
2017-12-26T06:43:27.019Z,74.20
2017-12-26T06:44:00.679Z,74.10
2017-12-26T06:44:35.115Z,75.00
2017-12-26T06:45:08.780Z,74.40
2017-12-26T06:45:43.208Z,74.50
2017-12-26T06:46:16.895Z,74.50
2017-12-26T06:46:50.562Z,74.60
2017-12-26T06:47:25.009Z,75.60
2017-12-26T06:47:59.083Z,75.00
2017-12-26T06:48:33.524Z,75.40
2017-12-26T06:49:07.190Z,75.30
2017-12-26T06:49:40.861Z,75.20
2017-12-26T06:50:15.286Z,75.50
2017-12-26T06:50:48.946Z,75.40
2017-12-26T06:51:22.617Z,75.20
2017-12-26T06:51:56.283Z,75.60
2017-12-26T06:52:29.990Z,75.40
2017-12-26T06:53:03.697Z,75.50
2017-12-26T06:53:37.359Z,75.50
2017-12-26T06:54:11.012Z,75.60
2017-12-26T06:54:45.434Z,75.70
2017-12-26T06:55:19.103Z,75.70
2017-12-26T06:55:52.780Z,75.70
2017-12-26T06:56:27.209Z,75.70
2017-12-26T06:57:01.640Z,75.70
2017-12-26T06:57:35.304Z,75.70
2017-12-26T06:58:09.749Z,75.70
2017-12-26T06:58:43.406Z,75.80
2017-12-26T06:59:17.073Z,75.80
2017-12-26T06:59:51.529Z,75.90
2017-12-26T07:00:25.207Z,75.80
2017-12-26T07:00:58.882Z,75.80
2017-12-26T07:01:32.558Z,75.80
2017-12-26T07:02:06.232Z,75.90
2017-12-26T07:02:40.667Z,76.70
2017-12-26T07:03:14.359Z,76.10
2017-12-26T07:03:48.035Z,76.10
2017-12-26T07:04:21.698Z,76.30
2017-12-26T07:04:55.361Z,76.10
2017-12-26T07:05:29.028Z,76.10
2017-12-26T07:06:02.698Z,76.10
2017-12-26T07:06:36.365Z,76.20
2017-12-26T07:07:10.799Z,76.30
2017-12-26T07:07:44.452Z,76.30
2017-12-26T07:08:18.467Z,76.20
2017-12-26T07:08:52.893Z,76.30
2017-12-26T07:09:26.574Z,76.40
2017-12-26T07:10:00.234Z,76.40
2017-12-26T07:10:33.896Z,76.40
2017-12-26T07:11:07.566Z,76.40
2017-12-26T07:11:41.229Z,76.40
2017-12-26T07:12:14.917Z,76.60
2017-12-26T07:12:49.362Z,76.70
2017-12-26T07:13:23.058Z,76.60
2017-12-26T07:13:56.734Z,76.70
2017-12-26T07:14:30.398Z,76.80
2017-12-26T07:15:04.075Z,76.90
2017-12-26T07:15:38.508Z,77.10
2017-12-26T07:16:12.183Z,77.10